Time;durP1;ratioP1;P1;durP2;ratioP2;P2;SDS_P1;SDS_P2;PMS_P1;PMS_P2;Temp;Humidity;BMP_temperature;BMP_pressure;BME280_temperature;BME280_humidity;BME280_pressure;Samples;Min_cycle;Max_cycle;Signal;HPM_P1;HPM_P2
2021/08/12 00:01:45;;;;;;;10.40;4.90;;;;;;;;;;5055098;28;20525;-71
2021/08/12 00:04:17;;;;;;;7.27;5.80;;;;;;;;;;5036208;28;20458;-71
2021/08/12 00:06:45;;;;;;;6.10;4.70;;;;;;;;;;5053698;28;20437;-71
2021/08/12 00:09:13;;;;;;;8.10;5.33;;;;;;;;;;5058735;28;20453;-70
2021/08/12 00:11:44;;;;;;;8.13;6.40;;;;;;;;;;5058172;28;20848;-71
2021/08/12 00:14:13;;;;;;;6.03;4.60;;;;;;;;;;5057670;28;20449;-71
2021/08/12 00:16:43;;;;;;;9.00;6.20;;;;;;;;;;5057414;28;20549;-71
2021/08/12 00:19:11;;;;;;;6.50;5.43;;;;;;;;;;5053416;28;20453;-70
2021/08/12 00:21:39;;;;;;;6.07;5.03;;;;;;;;;;5058076;28;20442;-70
2021/08/12 00:24:07;;;;;;;7.63;5.27;;;;;;;;;;5057665;28;20446;-71
2021/08/12 00:26:38;;;;;;;6.10;5.47;;;;;;;;;;5057616;28;20477;-71
2021/08/12 00:29:06;;;;;;;7.80;4.70;;;;;;;;;;5058551;28;20492;-70
2021/08/12 00:31:34;;;;;;;6.57;5.17;;;;;;;;;;5057608;28;20450;-70
2021/08/12 00:34:03;;;;;;;6.03;5.20;;;;;;;;;;5058250;28;20454;-70
2021/08/12 00:36:31;;;;;;;5.43;4.93;;;;;;;;;;5058030;28;20805;-70
2021/08/12 00:38:59;;;;;;;7.57;4.97;;;;;;;;;;5058395;28;20825;-70
2021/08/12 00:41:28;;;;;;;7.37;5.20;;;;;;;;;;5058521;28;20457;-70
2021/08/12 00:43:56;;;;;;;5.83;5.30;;;;;;;;;;5058128;28;20480;-70
2021/08/12 00:46:26;;;;;;;6.17;5.57;;;;;;;;;;5058071;28;20873;-70
2021/08/12 00:48:54;;;;;;;6.30;4.93;;;;;;;;;;5058120;28;20854;-70
2021/08/12 00:51:23;;;;;;;6.23;5.30;;;;;;;;;;5058404;28;20812;-70
2021/08/12 00:53:51;;;;;;;8.37;5.30;;;;;;;;;;5057581;28;20465;-70
2021/08/12 00:56:18;;;;;;;5.20;4.70;;;;;;;;;;5058055;28;20446;-70
2021/08/12 00:58:46;;;;;;;6.60;5.00;;;;;;;;;;5058313;28;20483;-70
2021/08/12 01:01:14;;;;;;;7.40;6.20;;;;;;;;;;5057711;28;20450;-70
2021/08/12 01:03:42;;;;;;;8.63;5.40;;;;;;;;;;5056671;28;20485;-70
2021/08/12 01:06:10;;;;;;;6.37;5.53;;;;;;;;;;5055868;28;20916;-70
2021/08/12 01:08:41;;;;;;;6.33;4.77;;;;;;;;;;5061286;28;20571;-70
2021/08/12 01:11:13;;;;;;;7.80;5.20;;;;;;;;;;5077915;28;20457;-70
2021/08/12 01:13:47;;;;;;;5.57;5.00;;;;;;;;;;5077205;28;20482;-70
2021/08/12 01:16:18;;;;;;;5.83;5.23;;;;;;;;;;5077620;28;20484;-70
2021/08/12 01:18:48;;;;;;;8.03;5.53;;;;;;;;;;5076329;28;20568;-70
2021/08/12 01:21:49;;;;;;;7.83;5.50;;;;;;;;;;5077574;28;20457;-70
2021/08/12 01:24:18;;;;;;;6.63;5.63;;;;;;;;;;4968254;28;20572;-70
2021/08/12 01:26:48;;;;;;;7.23;5.67;;;;;;;;;;4955802;29;20584;-70
2021/08/12 01:29:21;;;;;;;6.57;4.73;;;;;;;;;;5004767;28;20469;-70
2021/08/12 01:31:54;;;;;;;5.67;4.97;;;;;;;;;;5057057;28;20449;-70
2021/08/12 01:34:25;;;;;;;5.17;4.67;;;;;;;;;;5066364;28;20557;-70
2021/08/12 01:36:56;;;;;;;6.23;5.63;;;;;;;;;;5056910;28;20497;-70
2021/08/12 01:39:25;;;;;;;7.13;5.63;;;;;;;;;;5049696;28;20603;-70
2021/08/12 01:41:54;;;;;;;5.37;4.30;;;;;;;;;;5057115;28;20449;-70
2021/08/12 01:44:23;;;;;;;7.20;5.30;;;;;;;;;;5057359;28;20465;-70
2021/08/12 01:46:51;;;;;;;7.30;5.53;;;;;;;;;;5059055;28;20798;-70
2021/08/12 01:49:19;;;;;;;5.30;4.80;;;;;;;;;;5076886;28;20467;-71
2021/08/12 01:51:47;;;;;;;6.80;5.17;;;;;;;;;;5077012;28;20460;-70
2021/08/12 01:54:16;;;;;;;6.60;5.10;;;;;;;;;;5077174;28;20463;-70
2021/08/12 01:56:45;;;;;;;8.37;5.83;;;;;;;;;;5077186;28;20460;-70
2021/08/12 01:59:14;;;;;;;8.50;5.33;;;;;;;;;;5077178;28;20495;-69
2021/08/12 02:01:46;;;;;;;6.13;4.77;;;;;;;;;;5076879;28;20440;-70
2021/08/12 02:04:14;;;;;;;6.70;5.40;;;;;;;;;;5076884;28;20864;-70
2021/08/12 02:06:42;;;;;;;6.63;5.93;;;;;;;;;;5076895;28;20480;-70
2021/08/12 02:09:09;;;;;;;8.23;5.17;;;;;;;;;;5077291;28;20474;-70
2021/08/12 02:11:39;;;;;;;6.57;5.40;;;;;;;;;;5076960;28;20460;-70
2021/08/12 02:14:07;;;;;;;6.00;5.40;;;;;;;;;;5067621;28;20457;-70
2021/08/12 02:16:34;;;;;;;8.23;6.03;;;;;;;;;;5056453;28;20555;-70
2021/08/12 02:19:02;;;;;;;5.60;5.00;;;;;;;;;;5056800;28;20560;-70
2021/08/12 02:21:33;;;;;;;11.70;6.07;;;;;;;;;;5057238;28;20531;-70
2021/08/12 02:24:02;;;;;;;8.30;6.43;;;;;;;;;;5056069;28;20489;-70
2021/08/12 02:26:33;;;;;;;7.13;6.20;;;;;;;;;;5056951;28;20493;-70
2021/08/12 02:29:03;;;;;;;6.10;5.50;;;;;;;;;;5056395;28;20793;-70
2021/08/12 02:31:32;;;;;;;6.33;5.73;;;;;;;;;;5056830;28;21033;-70
2021/08/12 02:33:59;;;;;;;8.10;6.17;;;;;;;;;;5056657;28;20461;-70
2021/08/12 02:36:27;;;;;;;6.67;5.90;;;;;;;;;;5056699;28;20461;-70
2021/08/12 02:38:56;;;;;;;9.50;6.13;;;;;;;;;;5056312;28;20779;-70
2021/08/12 02:41:25;;;;;;;9.07;5.43;;;;;;;;;;5056499;28;20518;-70
2021/08/12 02:43:53;;;;;;;8.80;6.80;;;;;;;;;;5056357;28;20469;-70
2021/08/12 02:46:24;;;;;;;6.53;5.93;;;;;;;;;;5056173;28;20511;-70
2021/08/12 02:48:52;;;;;;;7.10;6.30;;;;;;;;;;5056108;28;20449;-70
2021/08/12 02:51:20;;;;;;;6.60;5.63;;;;;;;;;;5056446;28;20490;-70
2021/08/12 02:53:48;;;;;;;7.70;6.00;;;;;;;;;;5056255;28;20454;-70
2021/08/12 02:56:17;;;;;;;7.43;6.20;;;;;;;;;;5056431;28;20453;-70
2021/08/12 02:58:45;;;;;;;7.63;6.23;;;;;;;;;;5055502;28;20461;-70
2021/08/12 03:01:13;;;;;;;8.43;6.53;;;;;;;;;;5061403;28;20558;-70
2021/08/12 03:03:43;;;;;;;9.43;6.43;;;;;;;;;;5075826;28;20452;-70
2021/08/12 03:06:15;;;;;;;9.60;6.83;;;;;;;;;;5065064;28;20494;-72
2021/08/12 03:08:47;;;;;;;8.00;6.53;;;;;;;;;;5056188;28;20564;-71
2021/08/12 03:11:16;;;;;;;7.77;7.00;;;;;;;;;;5056090;28;20556;-70
2021/08/12 03:13:44;;;;;;;8.10;6.47;;;;;;;;;;5056004;28;20450;-71
2021/08/12 03:16:12;;;;;;;7.93;7.13;;;;;;;;;;5056015;28;20453;-70
2021/08/12 03:18:40;;;;;;;7.40;6.17;;;;;;;;;;5055833;28;20926;-70
2021/08/12 03:21:13;;;;;;;10.80;7.20;;;;;;;;;;5056096;28;20496;-70
2021/08/12 03:23:42;;;;;;;9.30;6.80;;;;;;;;;;5055483;28;20485;-70
2021/08/12 03:26:10;;;;;;;8.90;6.00;;;;;;;;;;5056000;28;20920;-70
2021/08/12 03:28:37;;;;;;;6.77;6.10;;;;;;;;;;5055469;28;20454;-70
2021/08/12 03:31:05;;;;;;;11.80;7.33;;;;;;;;;;5055974;28;20461;-70
2021/08/12 03:33:33;;;;;;;7.90;6.40;;;;;;;;;;5055284;28;20449;-70
2021/08/12 03:36:00;;;;;;;6.23;5.57;;;;;;;;;;5055917;28;20457;-70
2021/08/12 03:38:29;;;;;;;8.40;7.60;;;;;;;;;;5055674;28;20461;-70
2021/08/12 03:41:02;;;;;;;9.80;7.70;;;;;;;;;;5049770;28;20748;-70
2021/08/12 03:43:30;;;;;;;8.73;7.83;;;;;;;;;;5048160;28;21057;-70
2021/08/12 03:45:58;;;;;;;8.53;6.80;;;;;;;;;;5040814;28;20533;-69
2021/08/12 03:48:26;;;;;;;9.23;7.83;;;;;;;;;;5079909;28;20448;-70
2021/08/12 03:50:56;;;;;;;9.57;7.07;;;;;;;;;;5073715;28;20468;-70
2021/08/12 03:53:24;;;;;;;10.73;7.03;;;;;;;;;;5059331;28;20475;-70
2021/08/12 03:55:59;;;;;;;7.50;6.40;;;;;;;;;;5059455;28;20464;-70
2021/08/12 03:58:26;;;;;;;8.37;6.63;;;;;;;;;;5059187;28;20460;-70
2021/08/12 04:00:56;;;;;;;10.40;7.50;;;;;;;;;;5059410;28;20560;-70
2021/08/12 04:03:25;;;;;;;14.77;6.67;;;;;;;;;;5059251;28;20448;-70
2021/08/12 04:05:52;;;;;;;10.60;7.17;;;;;;;;;;5059222;28;20485;-70
2021/08/12 04:08:20;;;;;;;10.17;8.17;;;;;;;;;;5059203;28;20453;-70
2021/08/12 04:10:48;;;;;;;14.17;7.80;;;;;;;;;;5058769;28;20476;-70
2021/08/12 04:13:17;;;;;;;11.27;8.33;;;;;;;;;;5059175;28;20464;-70
2021/08/12 04:15:45;;;;;;;9.70;7.10;;;;;;;;;;5058890;28;20476;-70
2021/08/12 04:18:13;;;;;;;10.60;7.27;;;;;;;;;;5059068;28;20512;-70
2021/08/12 04:20:40;;;;;;;8.90;7.37;;;;;;;;;;5058745;28;20543;-70
2021/08/12 04:23:08;;;;;;;12.40;6.60;;;;;;;;;;5058851;28;20960;-70
2021/08/12 04:25:36;;;;;;;9.63;8.03;;;;;;;;;;5058780;28;20892;-70
2021/08/12 04:28:04;;;;;;;12.20;9.27;;;;;;;;;;5058750;28;20457;-70
2021/08/12 04:30:33;;;;;;;11.70;7.87;;;;;;;;;;5058869;28;20563;-70
2021/08/12 04:33:04;;;;;;;9.43;7.80;;;;;;;;;;5058789;28;20883;-70
2021/08/12 04:35:31;;;;;;;9.77;6.90;;;;;;;;;;5058869;28;20480;-70
2021/08/12 04:37:59;;;;;;;8.87;7.63;;;;;;;;;;5058747;28;20445;-70
2021/08/12 04:40:26;;;;;;;7.60;6.87;;;;;;;;;;5057932;28;20460;-70
2021/08/12 04:42:54;;;;;;;11.77;8.87;;;;;;;;;;5058189;28;20449;-70
2021/08/12 04:45:22;;;;;;;8.30;7.50;;;;;;;;;;5058784;28;20477;-70
2021/08/12 04:47:52;;;;;;;10.73;7.67;;;;;;;;;;5058396;28;20492;-69
2021/08/12 04:50:22;;;;;;;8.77;7.27;;;;;;;;;;5058447;28;20485;-70
2021/08/12 04:52:50;;;;;;;12.60;7.27;;;;;;;;;;5058320;28;20497;-70
2021/08/12 04:55:18;;;;;;;11.50;7.30;;;;;;;;;;5058018;28;20465;-70
2021/08/12 04:57:46;;;;;;;10.20;8.73;;;;;;;;;;5057676;28;20442;-70
2021/08/12 05:00:14;;;;;;;8.27;7.47;;;;;;;;;;5057596;28;20519;-70
2021/08/12 05:02:42;;;;;;;13.03;8.53;;;;;;;;;;5058462;28;20477;-70
2021/08/12 05:05:12;;;;;;;7.40;6.60;;;;;;;;;;5057518;28;20544;-70
2021/08/12 05:07:43;;;;;;;10.23;7.33;;;;;;;;;;5057822;28;20496;-70
2021/08/12 05:10:11;;;;;;;10.10;7.73;;;;;;;;;;5057913;28;20545;-70
2021/08/12 05:12:39;;;;;;;10.70;7.63;;;;;;;;;;5057023;28;20831;-70
2021/08/12 05:15:07;;;;;;;10.53;7.77;;;;;;;;;;5057668;28;20544;-70
2021/08/12 05:17:35;;;;;;;6.47;5.73;;;;;;;;;;5057397;28;20508;-70
2021/08/12 05:20:06;;;;;;;6.87;6.10;;;;;;;;;;5057261;28;20454;-70
2021/08/12 05:22:35;;;;;;;8.73;6.90;;;;;;;;;;5056760;28;20449;-70
2021/08/12 05:25:02;;;;;;;7.73;6.30;;;;;;;;;;5057166;28;20481;-70
2021/08/12 05:27:30;;;;;;;6.93;6.23;;;;;;;;;;5057609;28;20499;-70
2021/08/12 05:29:58;;;;;;;6.83;5.23;;;;;;;;;;5057356;28;20544;-70
2021/08/12 05:32:26;;;;;;;8.03;5.70;;;;;;;;;;5056850;28;20787;-70
2021/08/12 05:34:53;;;;;;;8.70;6.37;;;;;;;;;;5074392;28;20882;-70
2021/08/12 05:37:21;;;;;;;7.33;5.57;;;;;;;;;;5057273;28;20477;-70
2021/08/12 05:39:55;;;;;;;7.57;6.10;;;;;;;;;;5057038;28;20454;-70
2021/08/12 05:42:23;;;;;;;7.03;6.27;;;;;;;;;;5057311;28;20869;-70
2021/08/12 05:44:51;;;;;;;7.77;5.93;;;;;;;;;;5056903;28;20516;-70
2021/08/12 05:47:19;;;;;;;6.07;5.37;;;;;;;;;;5055559;28;20901;-70
2021/08/12 05:49:46;;;;;;;8.23;6.13;;;;;;;;;;5056184;28;20464;-70
2021/08/12 05:52:14;;;;;;;8.23;5.33;;;;;;;;;;5056651;28;20460;-70
2021/08/12 05:54:42;;;;;;;8.10;5.70;;;;;;;;;;5056251;28;20450;-70
2021/08/12 05:57:11;;;;;;;7.00;6.13;;;;;;;;;;5056637;28;20848;-70
2021/08/12 05:59:39;;;;;;;7.47;6.27;;;;;;;;;;5056340;28;20441;-70
2021/08/12 06:02:07;;;;;;;7.03;5.90;;;;;;;;;;5056628;28;20465;-70
2021/08/12 06:04:34;;;;;;;6.77;6.07;;;;;;;;;;5055997;28;20452;-71
2021/08/12 06:07:02;;;;;;;6.73;5.50;;;;;;;;;;5055631;28;20499;-70
2021/08/12 06:09:30;;;;;;;8.27;5.87;;;;;;;;;;5056205;28;20438;-71
2021/08/12 06:12:00;;;;;;;8.57;5.67;;;;;;;;;;5056112;28;20457;-71
2021/08/12 06:14:29;;;;;;;6.80;6.20;;;;;;;;;;5056057;28;20530;-70
2021/08/12 06:16:57;;;;;;;6.47;5.87;;;;;;;;;;5056082;28;20544;-70
2021/08/12 06:19:25;;;;;;;10.33;6.13;;;;;;;;;;5055579;28;20453;-70
2021/08/12 06:21:53;;;;;;;6.03;4.90;;;;;;;;;;5048825;28;20540;-70
2021/08/12 06:24:23;;;;;;;9.47;5.53;;;;;;;;;;5055616;28;20622;-72
2021/08/12 06:26:51;;;;;;;6.60;5.20;;;;;;;;;;5055650;28;20489;-70
2021/08/12 06:29:18;;;;;;;6.53;4.90;;;;;;;;;;5055529;28;20441;-71
2021/08/12 06:31:48;;;;;;;7.60;5.10;;;;;;;;;;5054863;28;20461;-71
2021/08/12 06:34:16;;;;;;;7.27;5.73;;;;;;;;;;5055144;28;20462;-70
2021/08/12 06:36:44;;;;;;;8.30;6.17;;;;;;;;;;5055547;28;20467;-69
2021/08/12 06:39:15;;;;;;;6.90;5.57;;;;;;;;;;5054858;28;20545;-70
2021/08/12 06:41:43;;;;;;;13.70;7.37;;;;;;;;;;5036219;28;20917;-70
2021/08/12 06:44:11;;;;;;;6.27;5.67;;;;;;;;;;5047047;28;20469;-70
2021/08/12 06:46:39;;;;;;;8.27;5.80;;;;;;;;;;5055007;28;20524;-70
2021/08/12 06:49:08;;;;;;;10.20;6.90;;;;;;;;;;5055023;28;20461;-71
2021/08/12 06:51:36;;;;;;;7.00;5.80;;;;;;;;;;5058812;28;20543;-70
2021/08/12 06:54:05;;;;;;;8.10;6.40;;;;;;;;;;5060942;28;20460;-70
2021/08/12 06:56:36;;;;;;;6.93;6.20;;;;;;;;;;5054399;28;20446;-70
2021/08/12 06:59:04;;;;;;;8.97;6.50;;;;;;;;;;5054523;28;20465;-70
2021/08/12 07:01:32;;;;;;;6.80;5.43;;;;;;;;;;5055062;28;20533;-70
2021/08/12 07:04:00;;;;;;;6.80;5.53;;;;;;;;;;5053064;28;20741;-69
2021/08/12 07:06:32;;;;;;;6.70;5.67;;;;;;;;;;5055218;28;20975;-69
2021/08/12 07:09:00;;;;;;;6.30;5.30;;;;;;;;;;5054572;28;20554;-70
2021/08/12 07:11:31;;;;;;;7.00;6.27;;;;;;;;;;5054311;28;20568;-70
2021/08/12 07:14:07;;;;;;;9.67;5.20;;;;;;;;;;5035803;28;20454;-71
2021/08/12 07:16:35;;;;;;;7.80;5.77;;;;;;;;;;5046438;28;20459;-70
2021/08/12 07:19:03;;;;;;;7.07;4.57;;;;;;;;;;5059098;28;20466;-70
2021/08/12 07:24:35;;;;;;;6.77;4.40;;;;;;;;;;5056761;28;20733;-70
2021/08/12 07:27:03;;;;;;;6.87;5.03;;;;;;;;;;5059113;28;20923;-69
2021/08/12 07:29:36;;;;;;;6.43;4.20;;;;;;;;;;5057322;28;20469;-70
2021/08/12 07:32:04;;;;;;;8.87;5.23;;;;;;;;;;5057466;28;20484;-69
2021/08/12 07:34:32;;;;;;;5.83;4.53;;;;;;;;;;5058321;28;20472;-70
2021/08/12 07:37:00;;;;;;;6.20;5.10;;;;;;;;;;5058516;28;20442;-70
2021/08/12 07:39:28;;;;;;;6.80;4.20;;;;;;;;;;5057783;28;20767;-70
2021/08/12 07:42:00;;;;;;;12.63;4.90;;;;;;;;;;5056088;28;20468;-70
2021/08/12 07:44:29;;;;;;;5.23;4.73;;;;;;;;;;5058119;28;20730;-70
2021/08/12 07:46:57;;;;;;;5.53;5.03;;;;;;;;;;5075921;28;20484;-69
2021/08/12 07:49:25;;;;;;;5.27;4.77;;;;;;;;;;5077021;28;20460;-69
2021/08/12 07:51:53;;;;;;;5.50;4.63;;;;;;;;;;5066179;28;20452;-70
2021/08/12 07:54:22;;;;;;;5.40;4.53;;;;;;;;;;5057770;28;20832;-70
2021/08/12 07:56:50;;;;;;;8.23;4.17;;;;;;;;;;5059296;28;20445;-70
2021/08/12 07:59:22;;;;;;;6.60;3.77;;;;;;;;;;5059249;28;20462;-70
2021/08/12 08:01:53;;;;;;;5.10;4.20;;;;;;;;;;5058813;28;20908;-70
2021/08/12 08:04:21;;;;;;;4.57;4.17;;;;;;;;;;5058379;28;20449;-70
2021/08/12 08:06:48;;;;;;;7.67;4.03;;;;;;;;;;5058892;28;20453;-70
2021/08/12 08:09:17;;;;;;;6.27;4.77;;;;;;;;;;5056212;28;20469;-70
2021/08/12 08:11:45;;;;;;;8.60;5.07;;;;;;;;;;5058381;28;20710;-71
2021/08/12 08:14:14;;;;;;;6.57;5.90;;;;;;;;;;5056665;28;20776;-71
2021/08/12 08:16:43;;;;;;;7.53;4.30;;;;;;;;;;5058331;28;20457;-70
2021/08/12 08:19:19;;;;;;;6.67;4.30;;;;;;;;;;5058315;28;20472;-71
2021/08/12 08:21:47;;;;;;;7.10;5.00;;;;;;;;;;5057311;28;20445;-70
2021/08/12 08:24:16;;;;;;;9.93;6.50;;;;;;;;;;5058026;28;20453;-71
2021/08/12 08:26:53;;;;;;;5.83;4.40;;;;;;;;;;5058873;28;20471;-71
2021/08/12 08:29:21;;;;;;;5.60;4.53;;;;;;;;;;5057192;28;20550;-71
2021/08/12 08:31:50;;;;;;;6.60;4.00;;;;;;;;;;5057975;28;20450;-71
2021/08/12 08:34:19;;;;;;;5.40;4.13;;;;;;;;;;5057831;28;20476;-70
2021/08/12 08:36:47;;;;;;;6.40;4.40;;;;;;;;;;5056935;28;20468;-70
2021/08/12 08:39:15;;;;;;;5.47;4.20;;;;;;;;;;5056632;28;20450;-70
2021/08/12 08:41:45;;;;;;;6.93;4.60;;;;;;;;;;5058220;28;20465;-70
2021/08/12 08:44:17;;;;;;;5.97;4.10;;;;;;;;;;5057639;28;20455;-70
2021/08/12 08:46:52;;;;;;;4.80;3.70;;;;;;;;;;5058580;28;20458;-71
2021/08/12 08:49:25;;;;;;;5.20;3.60;;;;;;;;;;5056698;28;20453;-71
2021/08/12 08:51:53;;;;;;;5.27;4.20;;;;;;;;;;5057779;28;20508;-69
2021/08/12 08:54:24;;;;;;;7.63;4.47;;;;;;;;;;5057768;28;20453;-70
2021/08/12 08:56:56;;;;;;;9.60;4.47;;;;;;;;;;5056298;28;20442;-70
2021/08/12 08:59:25;;;;;;;7.03;3.33;;;;;;;;;;5054036;28;20446;-70
2021/08/12 09:01:53;;;;;;;6.43;4.27;;;;;;;;;;5057660;28;20465;-69
2021/08/12 09:04:26;;;;;;;5.60;5.10;;;;;;;;;;5057374;28;20492;-70
2021/08/12 09:06:54;;;;;;;5.43;3.20;;;;;;;;;;5056228;28;20453;-70
2021/08/12 09:09:22;;;;;;;4.27;3.80;;;;;;;;;;5057028;28;20491;-70
2021/08/12 09:11:51;;;;;;;4.70;4.20;;;;;;;;;;5056997;28;20523;-70
2021/08/12 09:14:32;;;;;;;5.80;4.03;;;;;;;;;;5037857;28;20465;-70
2021/08/12 09:17:01;;;;;;;5.40;3.90;;;;;;;;;;5050428;28;20523;-70
2021/08/12 09:19:31;;;;;;;7.17;4.47;;;;;;;;;;5058185;28;20469;-70
2021/08/12 09:22:00;;;;;;;4.63;4.00;;;;;;;;;;5055608;28;20829;-69
2021/08/12 09:24:28;;;;;;;4.23;3.40;;;;;;;;;;5055290;28;20543;-71
2021/08/12 09:26:56;;;;;;;6.80;4.37;;;;;;;;;;5057093;28;20476;-69
2021/08/12 09:29:30;;;;;;;5.10;3.80;;;;;;;;;;5055630;28;20553;-70
2021/08/12 09:32:00;;;;;;;5.13;3.40;;;;;;;;;;5056233;28;20476;-70
2021/08/12 09:34:41;;;;;;;4.70;3.60;;;;;;;;;;5055937;28;20493;-70
2021/08/12 09:37:10;;;;;;;7.00;3.90;;;;;;;;;;5044729;28;20451;-72
2021/08/12 09:39:44;;;;;;;5.67;4.10;;;;;;;;;;5053973;28;20477;-71
2021/08/12 09:42:13;;;;;;;7.07;3.90;;;;;;;;;;5055130;28;20453;-72
2021/08/12 09:44:42;;;;;;;6.90;5.60;;;;;;;;;;5055378;28;20454;-69
2021/08/12 09:47:12;;;;;;;6.53;5.60;;;;;;;;;;5035105;28;20727;-71
2021/08/12 09:49:45;;;;;;;5.93;4.80;;;;;;;;;;5034664;28;20858;-71
2021/08/12 09:52:28;;;;;;;6.47;4.90;;;;;;;;;;5054472;28;20438;-71
2021/08/12 09:55:23;;;;;;;5.50;4.20;;;;;;;;;;5054469;28;20475;-71
2021/08/12 09:57:52;;;;;;;4.50;3.90;;;;;;;;;;5052940;28;20521;-71
2021/08/12 10:00:31;;;;;;;6.37;4.30;;;;;;;;;;5054718;28;20457;-71
2021/08/12 10:02:59;;;;;;;7.20;4.80;;;;;;;;;;5056027;28;20449;-71
2021/08/12 10:05:30;;;;;;;7.57;5.60;;;;;;;;;;5055134;28;20557;-71
2021/08/12 10:07:58;;;;;;;11.67;8.60;;;;;;;;;;5055151;28;20806;-70
2021/08/12 10:10:28;;;;;;;8.97;7.00;;;;;;;;;;5054713;28;20548;-70
2021/08/12 10:13:01;;;;;;;7.57;5.63;;;;;;;;;;5054308;28;20453;-70
2021/08/12 10:15:30;;;;;;;7.20;4.70;;;;;;;;;;5052507;28;21151;-70
2021/08/12 10:17:59;;;;;;;8.50;4.93;;;;;;;;;;5054207;28;20465;-69
2021/08/12 10:20:30;;;;;;;8.67;5.30;;;;;;;;;;5054467;28;20556;-70
2021/08/12 10:22:59;;;;;;;6.90;4.60;;;;;;;;;;5053975;28;20517;-70
2021/08/12 10:25:28;;;;;;;5.70;5.10;;;;;;;;;;5054055;28;20942;-70
2021/08/12 10:28:02;;;;;;;9.10;6.37;;;;;;;;;;5054401;28;20529;-70
2021/08/12 10:30:36;;;;;;;8.23;5.60;;;;;;;;;;5055214;28;20461;-70
2021/08/12 10:33:05;;;;;;;7.43;5.57;;;;;;;;;;5051630;28;20484;-70
2021/08/12 10:35:36;;;;;;;6.10;4.73;;;;;;;;;;5054590;28;20540;-70
2021/08/12 10:38:05;;;;;;;5.10;4.60;;;;;;;;;;5055306;28;20453;-69
2021/08/12 10:40:35;;;;;;;4.97;4.10;;;;;;;;;;5054191;28;20466;-71
2021/08/12 10:43:04;;;;;;;7.90;5.27;;;;;;;;;;5052059;28;20492;-69
2021/08/12 10:45:35;;;;;;;7.27;5.20;;;;;;;;;;5054330;28;20457;-70
2021/08/12 10:48:03;;;;;;;5.57;4.30;;;;;;;;;;5039420;28;20859;-70
2021/08/12 10:50:43;;;;;;;6.07;5.37;;;;;;;;;;5052616;28;20465;-71
2021/08/12 10:53:27;;;;;;;5.63;4.77;;;;;;;;;;5053550;28;20485;-71
2021/08/12 10:56:11;;;;;;;8.60;5.20;;;;;;;;;;5052841;28;20455;-70
2021/08/12 10:58:47;;;;;;;6.07;4.40;;;;;;;;;;5055527;28;20461;-71
2021/08/12 11:01:15;;;;;;;6.50;4.93;;;;;;;;;;5047900;28;20491;-69
2021/08/12 11:03:45;;;;;;;6.87;4.93;;;;;;;;;;5055294;28;20462;-70
2021/08/12 11:06:15;;;;;;;5.67;4.47;;;;;;;;;;5057194;28;20795;-70
2021/08/12 11:08:57;;;;;;;5.90;4.60;;;;;;;;;;5055844;28;20504;-70
2021/08/12 11:11:43;;;;;;;7.47;3.90;;;;;;;;;;5073819;28;20474;-70
2021/08/12 11:14:11;;;;;;;5.87;4.63;;;;;;;;;;5059124;28;20593;-70
2021/08/12 11:16:54;;;;;;;9.10;5.00;;;;;;;;;;5053367;28;20476;-70
2021/08/12 11:19:36;;;;;;;8.20;6.00;;;;;;;;;;5053214;28;20457;-70
2021/08/12 11:22:25;;;;;;;9.73;6.90;;;;;;;;;;5053274;28;20782;-69
2021/08/12 11:24:54;;;;;;;7.77;5.30;;;;;;;;;;5051867;28;20544;-71
2021/08/12 11:27:34;;;;;;;7.00;4.63;;;;;;;;;;5050784;28;20469;-71
2021/08/12 11:30:16;;;;;;;4.73;4.07;;;;;;;;;;5053060;28;20517;-72
2021/08/12 11:33:00;;;;;;;7.93;5.33;;;;;;;;;;5050693;28;20452;-72
2021/08/12 11:35:49;;;;;;;8.53;5.73;;;;;;;;;;5051009;28;20540;-71
2021/08/12 11:38:20;;;;;;;23.27;14.93;;;;;;;;;;5053395;28;20475;-71
2021/08/12 11:40:48;;;;;;;9.07;7.17;;;;;;;;;;5053447;28;20449;-71
2021/08/12 11:43:20;;;;;;;7.10;5.03;;;;;;;;;;5057092;28;20552;-70
2021/08/12 11:45:48;;;;;;;11.60;5.80;;;;;;;;;;5049544;28;21041;-70
2021/08/12 11:48:16;;;;;;;6.53;4.60;;;;;;;;;;5053194;28;20546;-70
2021/08/12 11:50:45;;;;;;;7.93;5.10;;;;;;;;;;5052170;28;20445;-71
2021/08/12 11:53:15;;;;;;;7.67;4.37;;;;;;;;;;5053396;28;20552;-71
2021/08/12 11:55:49;;;;;;;7.00;4.10;;;;;;;;;;5053905;28;20497;-71
2021/08/12 11:58:19;;;;;;;8.00;4.37;;;;;;;;;;5056565;28;20582;-70
2021/08/12 12:00:48;;;;;;;10.20;6.40;;;;;;;;;;5050697;28;20458;-71
2021/08/12 12:03:28;;;;;;;9.40;6.20;;;;;;;;;;5053089;28;20556;-70
2021/08/12 12:05:58;;;;;;;7.73;4.50;;;;;;;;;;5055954;28;20453;-72
2021/08/12 12:08:40;;;;;;;6.53;4.57;;;;;;;;;;5057268;28;20949;-70
2021/08/12 12:11:11;;;;;;;6.10;5.30;;;;;;;;;;5056982;28;20564;-69
2021/08/12 12:13:39;;;;;;;5.87;4.60;;;;;;;;;;5055976;28;20528;-69
2021/08/12 12:16:11;;;;;;;6.50;4.67;;;;;;;;;;5056085;28;20519;-69
2021/08/12 12:18:40;;;;;;;9.00;4.37;;;;;;;;;;5056120;28;20745;-70
2021/08/12 12:21:09;;;;;;;6.33;4.70;;;;;;;;;;5056629;28;20532;-70
2021/08/12 12:23:38;;;;;;;7.10;4.40;;;;;;;;;;5056378;28;20544;-69
2021/08/12 12:26:06;;;;;;;7.33;4.83;;;;;;;;;;5057407;28;20571;-70
2021/08/12 12:28:41;;;;;;;4.63;3.10;;;;;;;;;;5058013;28;20513;-70
2021/08/12 12:31:16;;;;;;;5.90;4.43;;;;;;;;;;5057033;28;20495;-70
2021/08/12 12:33:44;;;;;;;4.63;3.63;;;;;;;;;;5057680;28;20460;-69
2021/08/12 12:36:13;;;;;;;6.67;5.33;;;;;;;;;;5056530;28;20518;-69
2021/08/12 12:38:42;;;;;;;5.90;4.37;;;;;;;;;;5056471;28;20500;-69
2021/08/12 12:41:12;;;;;;;5.33;3.90;;;;;;;;;;5056778;28;20456;-69
2021/08/12 12:43:41;;;;;;;8.13;6.43;;;;;;;;;;5055906;28;21029;-70
2021/08/12 12:46:15;;;;;;;5.77;4.60;;;;;;;;;;5051846;28;20480;-70
2021/08/12 12:48:45;;;;;;;10.27;4.70;;;;;;;;;;5064079;28;20592;-69
2021/08/12 12:51:25;;;;;;;8.07;5.60;;;;;;;;;;5056501;28;20453;-70
2021/08/12 12:53:53;;;;;;;6.30;3.70;;;;;;;;;;5056478;28;20849;-70
2021/08/12 12:56:22;;;;;;;5.77;3.80;;;;;;;;;;5053702;28;20478;-70
2021/08/12 12:58:52;;;;;;;6.67;4.80;;;;;;;;;;5054085;28;20454;-69
2021/08/12 13:01:27;;;;;;;5.40;4.10;;;;;;;;;;5049727;28;20578;-69
2021/08/12 13:04:05;;;;;;;4.20;3.80;;;;;;;;;;5056590;28;20484;-70
2021/08/12 13:06:42;;;;;;;5.33;4.13;;;;;;;;;;5063990;28;20460;-71
2021/08/12 13:09:29;;;;;;;4.63;3.60;;;;;;;;;;5037800;28;20483;-70
2021/08/12 13:11:58;;;;;;;5.20;3.53;;;;;;;;;;5055600;28;20826;-69
2021/08/12 13:14:37;;;;;;;8.20;4.47;;;;;;;;;;5061968;28;20755;-70
2021/08/12 13:17:13;;;;;;;5.33;3.30;;;;;;;;;;5051053;28;20449;-70
2021/08/12 13:19:42;;;;;;;7.53;4.23;;;;;;;;;;5057192;28;20453;-71
2021/08/12 13:22:21;;;;;;;8.30;3.90;;;;;;;;;;5058187;28;20911;-71
2021/08/12 13:24:52;;;;;;;5.97;4.20;;;;;;;;;;5052365;28;21118;-71
2021/08/12 13:27:22;;;;;;;7.23;5.50;;;;;;;;;;5054426;28;20449;-72
2021/08/12 13:30:04;;;;;;;4.10;3.43;;;;;;;;;;5056504;28;20520;-71
2021/08/12 13:32:36;;;;;;;4.90;4.00;;;;;;;;;;5063996;28;20515;-72
2021/08/12 13:35:05;;;;;;;6.37;4.93;;;;;;;;;;5063269;28;20481;-71
2021/08/12 13:37:33;;;;;;;6.53;5.23;;;;;;;;;;5047472;28;20484;-70
2021/08/12 13:40:09;;;;;;;4.23;3.13;;;;;;;;;;5057709;28;20441;-70
2021/08/12 13:42:38;;;;;;;7.20;3.60;;;;;;;;;;5057154;28;20477;-71
2021/08/12 13:45:15;;;;;;;6.17;4.07;;;;;;;;;;5057659;28;20518;-71
2021/08/12 13:48:01;;;;;;;4.50;3.27;;;;;;;;;;5056121;28;20467;-71
2021/08/12 13:50:29;;;;;;;4.50;3.50;;;;;;;;;;5057751;28;20477;-70
2021/08/12 13:52:57;;;;;;;5.53;3.70;;;;;;;;;;5057166;28;20812;-69
2021/08/12 13:55:25;;;;;;;4.00;3.07;;;;;;;;;;5056615;28;20892;-69
2021/08/12 13:57:56;;;;;;;4.80;3.60;;;;;;;;;;5055802;28;20453;-71
2021/08/12 14:00:33;;;;;;;3.70;3.07;;;;;;;;;;5055672;28;20536;-71
2021/08/12 14:03:01;;;;;;;4.83;3.23;;;;;;;;;;5055954;28;20552;-69
2021/08/12 14:05:29;;;;;;;5.80;3.90;;;;;;;;;;5055533;28;20461;-70
2021/08/12 14:10:39;;;;;;;7.10;4.30;;;;;;;;;;5053949;28;20829;-71
2021/08/12 14:13:12;;;;;;;4.90;3.87;;;;;;;;;;5056250;28;20751;-70
2021/08/12 14:15:42;;;;;;;5.77;3.43;;;;;;;;;;5055955;28;20549;-70
2021/08/12 14:18:11;;;;;;;6.77;4.00;;;;;;;;;;5056640;28;20841;-70
2021/08/12 14:20:40;;;;;;;5.20;3.60;;;;;;;;;;5055594;28;20463;-69
2021/08/12 14:23:08;;;;;;;6.00;5.10;;;;;;;;;;5055700;28;20544;-70
2021/08/12 14:25:36;;;;;;;7.40;3.60;;;;;;;;;;5054896;28;20471;-70
2021/08/12 14:28:09;;;;;;;6.17;3.43;;;;;;;;;;5056190;28;20460;-71
2021/08/12 14:30:39;;;;;;;6.20;4.53;;;;;;;;;;5056637;28;20580;-71
2021/08/12 14:33:18;;;;;;;5.63;3.80;;;;;;;;;;5058199;28;21055;-72
2021/08/12 14:35:53;;;;;;;6.07;4.03;;;;;;;;;;5057245;28;21000;-72
2021/08/12 14:38:24;;;;;;;6.17;3.63;;;;;;;;;;5058305;28;20464;-73
2021/08/12 14:41:03;;;;;;;6.73;4.53;;;;;;;;;;5055748;28;20470;-70
2021/08/12 14:43:50;;;;;;;4.83;3.70;;;;;;;;;;5057594;28;20449;-70
2021/08/12 14:46:40;;;;;;;4.40;3.90;;;;;;;;;;5054515;28;20958;-70
2021/08/12 14:49:13;;;;;;;5.23;3.80;;;;;;;;;;5056460;28;21142;-70
2021/08/12 14:51:59;;;;;;;5.77;4.60;;;;;;;;;;5056664;28;20445;-73
2021/08/12 14:54:43;;;;;;;6.07;3.87;;;;;;;;;;5056594;28;20476;-71
2021/08/12 14:57:13;;;;;;;5.60;2.63;;;;;;;;;;5043608;28;20531;-72
2021/08/12 14:59:45;;;;;;;7.63;3.70;;;;;;;;;;5056374;28;20437;-70
2021/08/12 15:02:18;;;;;;;3.80;2.60;;;;;;;;;;5054474;28;20457;-71
2021/08/12 15:04:48;;;;;;;8.80;3.67;;;;;;;;;;5052562;28;20490;-70
2021/08/12 15:07:23;;;;;;;5.23;3.90;;;;;;;;;;5055910;28;20449;-72